sensor_id;sensor_type;location;lat;lon;timestamp;P1;durP1;ratioP1;P2;durP2;ratioP2
49310;SDS011;35177;45.900;5.946;2022-08-21T00:01:46;3.67;;;1.85;;
49310;SDS011;35177;45.900;5.946;2022-08-21T00:04:11;1.88;;;1.63;;
49310;SDS011;35177;45.900;5.946;2022-08-21T00:06:37;2.55;;;1.60;;
49310;SDS011;35177;45.900;5.946;2022-08-21T00:09:04;4.28;;;1.70;;
49310;SDS011;35177;45.900;5.946;2022-08-21T00:11:32;4.65;;;1.50;;
49310;SDS011;35177;45.900;5.946;2022-08-21T00:14:00;3.33;;;1.50;;
49310;SDS011;35177;45.900;5.946;2022-08-21T00:16:26;4.00;;;1.30;;
49310;SDS011;35177;45.900;5.946;2022-08-21T00:18:51;1.50;;;1.40;;
49310;SDS011;35177;45.900;5.946;2022-08-21T00:21:17;6.32;;;1.45;;
49310;SDS011;35177;45.900;5.946;2022-08-21T00:23:42;6.55;;;2.00;;
49310;SDS011;35177;45.900;5.946;2022-08-21T00:26:08;4.57;;;1.75;;
49310;SDS011;35177;45.900;5.946;2022-08-21T00:28:34;2.55;;;1.50;;
49310;SDS011;35177;45.900;5.946;2022-08-21T00:31:00;5.47;;;1.50;;
49310;SDS011;35177;45.900;5.946;2022-08-21T00:33:28;2.28;;;1.38;;
49310;SDS011;35177;45.900;5.946;2022-08-21T00:35:54;2.47;;;1.42;;
49310;SDS011;35177;45.900;5.946;2022-08-21T00:38:20;3.75;;;1.70;;
49310;SDS011;35177;45.900;5.946;2022-08-21T00:40:51;3.53;;;1.55;;
49310;SDS011;35177;45.900;5.946;2022-08-21T00:43:21;7.03;;;1.77;;
49310;SDS011;35177;45.900;5.946;2022-08-21T00:45:50;7.88;;;1.80;;
49310;SDS011;35177;45.900;5.946;2022-08-21T00:48:16;2.75;;;1.38;;
49310;SDS011;35177;45.900;5.946;2022-08-21T00:50:43;5.05;;;1.52;;
49310;SDS011;35177;45.900;5.946;2022-08-21T00:53:14;4.93;;;1.85;;
49310;SDS011;35177;45.900;5.946;2022-08-21T00:55:40;4.55;;;1.60;;
49310;SDS011;35177;45.900;5.946;2022-08-21T00:58:07;3.00;;;1.38;;
49310;SDS011;35177;45.900;5.946;2022-08-21T01:00:37;2.97;;;1.60;;
49310;SDS011;35177;45.900;5.946;2022-08-21T01:03:06;3.63;;;1.63;;
49310;SDS011;35177;45.900;5.946;2022-08-21T01:05:35;3.25;;;1.67;;
49310;SDS011;35177;45.900;5.946;2022-08-21T01:08:02;3.15;;;1.40;;
49310;SDS011;35177;45.900;5.946;2022-08-21T01:10:28;10.75;;;2.20;;
49310;SDS011;35177;45.900;5.946;2022-08-21T01:12:55;4.22;;;1.60;;
49310;SDS011;35177;45.900;5.946;2022-08-21T01:15:22;7.25;;;1.48;;
49310;SDS011;35177;45.900;5.946;2022-08-21T01:17:52;8.10;;;1.70;;
49310;SDS011;35177;45.900;5.946;2022-08-21T01:20:18;4.22;;;1.30;;
49310;SDS011;35177;45.900;5.946;2022-08-21T01:22:44;9.88;;;1.30;;
49310;SDS011;35177;45.900;5.946;2022-08-21T01:25:12;3.25;;;1.30;;
49310;SDS011;35177;45.900;5.946;2022-08-21T01:27:40;1.42;;;1.30;;
49310;SDS011;35177;45.900;5.946;2022-08-21T01:30:19;1.65;;;1.55;;
49310;SDS011;35177;45.900;5.946;2022-08-21T01:32:48;6.38;;;1.50;;
49310;SDS011;35177;45.900;5.946;2022-08-21T01:35:15;2.78;;;1.50;;
49310;SDS011;35177;45.900;5.946;2022-08-21T01:37:43;3.95;;;1.50;;
49310;SDS011;35177;45.900;5.946;2022-08-21T01:40:09;7.28;;;2.05;;
49310;SDS011;35177;45.900;5.946;2022-08-21T01:42:36;4.95;;;1.63;;
49310;SDS011;35177;45.900;5.946;2022-08-21T01:45:03;3.80;;;1.48;;
49310;SDS011;35177;45.900;5.946;2022-08-21T01:47:31;3.15;;;1.58;;
49310;SDS011;35177;45.900;5.946;2022-08-21T01:49:56;4.30;;;1.40;;
49310;SDS011;35177;45.900;5.946;2022-08-21T01:52:22;1.58;;;1.40;;
49310;SDS011;35177;45.900;5.946;2022-08-21T01:54:48;3.25;;;1.60;;
49310;SDS011;35177;45.900;5.946;2022-08-21T01:57:14;2.03;;;1.60;;
49310;SDS011;35177;45.900;5.946;2022-08-21T01:59:40;3.08;;;1.65;;
49310;SDS011;35177;45.900;5.946;2022-08-21T02:02:06;4.38;;;1.95;;
49310;SDS011;35177;45.900;5.946;2022-08-21T02:04:32;5.45;;;2.00;;
49310;SDS011;35177;45.900;5.946;2022-08-21T02:06:59;5.50;;;2.00;;
49310;SDS011;35177;45.900;5.946;2022-08-21T02:09:26;6.75;;;1.80;;
49310;SDS011;35177;45.900;5.946;2022-08-21T02:11:52;7.32;;;1.90;;
49310;SDS011;35177;45.900;5.946;2022-08-21T02:14:17;8.75;;;2.17;;
49310;SDS011;35177;45.900;5.946;2022-08-21T02:16:44;3.72;;;1.83;;
49310;SDS011;35177;45.900;5.946;2022-08-21T02:19:10;5.05;;;1.52;;
49310;SDS011;35177;45.900;5.946;2022-08-21T02:21:37;9.02;;;1.60;;
49310;SDS011;35177;45.900;5.946;2022-08-21T02:24:03;2.92;;;1.75;;
49310;SDS011;35177;45.900;5.946;2022-08-21T02:26:29;8.77;;;1.92;;
49310;SDS011;35177;45.900;5.946;2022-08-21T02:28:54;7.60;;;1.55;;
49310;SDS011;35177;45.900;5.946;2022-08-21T02:31:20;6.70;;;2.58;;
49310;SDS011;35177;45.900;5.946;2022-08-21T02:33:46;3.28;;;2.25;;
49310;SDS011;35177;45.900;5.946;2022-08-21T02:36:12;3.90;;;1.80;;
49310;SDS011;35177;45.900;5.946;2022-08-21T02:38:38;2.13;;;1.90;;
49310;SDS011;35177;45.900;5.946;2022-08-21T02:41:10;7.97;;;2.13;;
49310;SDS011;35177;45.900;5.946;2022-08-21T02:43:37;5.20;;;1.92;;
49310;SDS011;35177;45.900;5.946;2022-08-21T02:46:04;3.83;;;1.60;;
49310;SDS011;35177;45.900;5.946;2022-08-21T02:48:31;4.32;;;1.30;;
49310;SDS011;35177;45.900;5.946;2022-08-21T02:51:03;6.70;;;1.50;;
49310;SDS011;35177;45.900;5.946;2022-08-21T02:53:31;3.20;;;1.27;;
49310;SDS011;35177;45.900;5.946;2022-08-21T02:55:59;1.63;;;1.52;;
49310;SDS011;35177;45.900;5.946;2022-08-21T02:58:27;2.40;;;1.20;;
49310;SDS011;35177;45.900;5.946;2022-08-21T03:00:56;2.17;;;1.35;;
49310;SDS011;35177;45.900;5.946;2022-08-21T03:03:23;1.58;;;1.48;;
49310;SDS011;35177;45.900;5.946;2022-08-21T03:05:49;5.20;;;1.48;;
49310;SDS011;35177;45.900;5.946;2022-08-21T03:08:16;2.40;;;1.45;;
49310;SDS011;35177;45.900;5.946;2022-08-21T03:10:43;5.18;;;1.38;;
49310;SDS011;35177;45.900;5.946;2022-08-21T03:13:11;4.93;;;1.50;;
49310;SDS011;35177;45.900;5.946;2022-08-21T03:15:38;5.88;;;1.52;;
49310;SDS011;35177;45.900;5.946;2022-08-21T03:18:05;5.28;;;1.52;;
49310;SDS011;35177;45.900;5.946;2022-08-21T03:20:32;3.03;;;1.95;;
49310;SDS011;35177;45.900;5.946;2022-08-21T03:22:59;2.92;;;1.85;;
49310;SDS011;35177;45.900;5.946;2022-08-21T03:25:26;4.82;;;2.00;;
49310;SDS011;35177;45.900;5.946;2022-08-21T03:27:52;2.75;;;1.55;;
49310;SDS011;35177;45.900;5.946;2022-08-21T03:30:19;3.58;;;1.63;;
49310;SDS011;35177;45.900;5.946;2022-08-21T03:32:46;7.65;;;2.28;;
49310;SDS011;35177;45.900;5.946;2022-08-21T03:35:12;4.68;;;1.65;;
49310;SDS011;35177;45.900;5.946;2022-08-21T03:37:39;7.50;;;1.90;;
49310;SDS011;35177;45.900;5.946;2022-08-21T03:40:05;3.00;;;1.70;;
49310;SDS011;35177;45.900;5.946;2022-08-21T03:42:33;1.35;;;1.25;;
49310;SDS011;35177;45.900;5.946;2022-08-21T03:44:59;3.05;;;1.20;;
49310;SDS011;35177;45.900;5.946;2022-08-21T03:47:24;3.72;;;1.40;;
49310;SDS011;35177;45.900;5.946;2022-08-21T03:49:50;8.70;;;1.55;;
49310;SDS011;35177;45.900;5.946;2022-08-21T03:52:16;6.53;;;1.50;;
49310;SDS011;35177;45.900;5.946;2022-08-21T03:54:42;1.92;;;1.50;;
49310;SDS011;35177;45.900;5.946;2022-08-21T03:57:09;6.30;;;1.77;;
49310;SDS011;35177;45.900;5.946;2022-08-21T03:59:35;5.85;;;1.40;;
49310;SDS011;35177;45.900;5.946;2022-08-21T04:02:01;9.98;;;1.58;;
49310;SDS011;35177;45.900;5.946;2022-08-21T04:04:29;4.10;;;1.38;;
49310;SDS011;35177;45.900;5.946;2022-08-21T04:06:55;3.63;;;1.40;;
49310;SDS011;35177;45.900;5.946;2022-08-21T04:09:21;2.35;;;1.48;;
49310;SDS011;35177;45.900;5.946;2022-08-21T04:11:47;3.75;;;1.45;;
49310;SDS011;35177;45.900;5.946;2022-08-21T04:14:14;5.72;;;1.30;;
49310;SDS011;35177;45.900;5.946;2022-08-21T04:16:41;2.83;;;1.08;;
49310;SDS011;35177;45.900;5.946;2022-08-21T04:19:07;2.50;;;1.40;;
49310;SDS011;35177;45.900;5.946;2022-08-21T04:21:34;3.25;;;1.13;;
49310;SDS011;35177;45.900;5.946;2022-08-21T04:24:02;3.75;;;1.33;;
49310;SDS011;35177;45.900;5.946;2022-08-21T04:26:29;5.30;;;1.40;;
49310;SDS011;35177;45.900;5.946;2022-08-21T04:28:56;2.42;;;1.00;;
49310;SDS011;35177;45.900;5.946;2022-08-21T04:31:22;1.85;;;1.48;;
49310;SDS011;35177;45.900;5.946;2022-08-21T04:33:53;5.35;;;1.38;;
49310;SDS011;35177;45.900;5.946;2022-08-21T04:36:19;1.40;;;1.30;;
49310;SDS011;35177;45.900;5.946;2022-08-21T04:38:45;1.45;;;1.35;;
49310;SDS011;35177;45.900;5.946;2022-08-21T04:41:10;4.15;;;1.45;;
49310;SDS011;35177;45.900;5.946;2022-08-21T04:43:37;3.20;;;1.58;;
49310;SDS011;35177;45.900;5.946;2022-08-21T04:46:03;4.70;;;1.33;;
49310;SDS011;35177;45.900;5.946;2022-08-21T04:48:29;6.47;;;1.65;;
49310;SDS011;35177;45.900;5.946;2022-08-21T04:50:59;5.40;;;1.50;;
49310;SDS011;35177;45.900;5.946;2022-08-21T04:53:32;3.53;;;1.10;;
49310;SDS011;35177;45.900;5.946;2022-08-21T04:56:09;3.35;;;1.58;;
49310;SDS011;35177;45.900;5.946;2022-08-21T04:58:38;2.42;;;1.50;;
49310;SDS011;35177;45.900;5.946;2022-08-21T05:01:05;3.88;;;1.55;;
49310;SDS011;35177;45.900;5.946;2022-08-21T05:03:35;3.58;;;1.50;;
49310;SDS011;35177;45.900;5.946;2022-08-21T05:06:03;2.10;;;1.45;;
49310;SDS011;35177;45.900;5.946;2022-08-21T05:08:33;2.38;;;1.60;;
49310;SDS011;35177;45.900;5.946;2022-08-21T05:10:59;1.63;;;1.52;;
49310;SDS011;35177;45.900;5.946;2022-08-21T05:13:25;3.17;;;1.45;;
49310;SDS011;35177;45.900;5.946;2022-08-21T05:15:50;3.85;;;1.45;;
49310;SDS011;35177;45.900;5.946;2022-08-21T05:18:16;4.10;;;1.27;;
49310;SDS011;35177;45.900;5.946;2022-08-21T05:20:41;4.97;;;1.92;;
49310;SDS011;35177;45.900;5.946;2022-08-21T05:23:11;6.70;;;1.40;;
49310;SDS011;35177;45.900;5.946;2022-08-21T05:25:38;1.50;;;1.40;;
49310;SDS011;35177;45.900;5.946;2022-08-21T05:28:04;3.35;;;1.50;;
49310;SDS011;35177;45.900;5.946;2022-08-21T05:30:30;3.05;;;1.17;;
49310;SDS011;35177;45.900;5.946;2022-08-21T05:33:00;2.97;;;1.83;;
49310;SDS011;35177;45.900;5.946;2022-08-21T05:35:27;5.15;;;1.88;;
49310;SDS011;35177;45.900;5.946;2022-08-21T05:37:53;3.30;;;1.73;;
49310;SDS011;35177;45.900;5.946;2022-08-21T05:40:20;4.22;;;1.60;;
49310;SDS011;35177;45.900;5.946;2022-08-21T05:42:45;4.80;;;1.80;;
49310;SDS011;35177;45.900;5.946;2022-08-21T05:45:11;4.03;;;1.85;;
49310;SDS011;35177;45.900;5.946;2022-08-21T05:47:36;4.93;;;1.50;;
49310;SDS011;35177;45.900;5.946;2022-08-21T05:50:02;7.22;;;1.98;;
49310;SDS011;35177;45.900;5.946;2022-08-21T05:52:29;2.00;;;1.60;;
49310;SDS011;35177;45.900;5.946;2022-08-21T05:54:55;4.25;;;1.50;;
49310;SDS011;35177;45.900;5.946;2022-08-21T05:57:21;3.63;;;1.58;;
49310;SDS011;35177;45.900;5.946;2022-08-21T05:59:47;1.98;;;1.60;;
49310;SDS011;35177;45.900;5.946;2022-08-21T06:02:13;3.00;;;2.00;;
49310;SDS011;35177;45.900;5.946;2022-08-21T06:04:39;3.60;;;1.98;;
49310;SDS011;35177;45.900;5.946;2022-08-21T06:07:05;5.75;;;1.80;;
49310;SDS011;35177;45.900;5.946;2022-08-21T06:09:31;6.45;;;2.00;;
49310;SDS011;35177;45.900;5.946;2022-08-21T06:11:57;8.75;;;2.08;;
49310;SDS011;35177;45.900;5.946;2022-08-21T06:14:23;2.03;;;1.92;;
49310;SDS011;35177;45.900;5.946;2022-08-21T06:16:48;2.22;;;1.88;;
49310;SDS011;35177;45.900;5.946;2022-08-21T06:19:14;3.20;;;1.75;;
49310;SDS011;35177;45.900;5.946;2022-08-21T06:21:40;4.30;;;1.88;;
49310;SDS011;35177;45.900;5.946;2022-08-21T06:24:05;2.40;;;1.80;;
49310;SDS011;35177;45.900;5.946;2022-08-21T06:26:32;3.35;;;1.80;;
49310;SDS011;35177;45.900;5.946;2022-08-21T06:28:58;1.60;;;1.45;;
49310;SDS011;35177;45.900;5.946;2022-08-21T06:31:24;2.83;;;1.90;;
49310;SDS011;35177;45.900;5.946;2022-08-21T06:33:51;2.30;;;1.63;;
49310;SDS011;35177;45.900;5.946;2022-08-21T06:36:17;2.33;;;1.60;;
49310;SDS011;35177;45.900;5.946;2022-08-21T06:38:44;2.10;;;1.88;;
49310;SDS011;35177;45.900;5.946;2022-08-21T06:41:10;3.88;;;1.80;;
49310;SDS011;35177;45.900;5.946;2022-08-21T06:43:35;1.88;;;1.50;;
49310;SDS011;35177;45.900;5.946;2022-08-21T06:46:01;3.78;;;1.60;;
49310;SDS011;35177;45.900;5.946;2022-08-21T06:48:27;5.63;;;1.95;;
49310;SDS011;35177;45.900;5.946;2022-08-21T06:50:52;3.70;;;1.75;;
49310;SDS011;35177;45.900;5.946;2022-08-21T06:53:19;1.58;;;1.42;;
49310;SDS011;35177;45.900;5.946;2022-08-21T06:55:46;2.47;;;1.42;;
49310;SDS011;35177;45.900;5.946;2022-08-21T06:58:12;7.82;;;2.33;;
49310;SDS011;35177;45.900;5.946;2022-08-21T07:00:39;4.85;;;1.70;;
49310;SDS011;35177;45.900;5.946;2022-08-21T07:03:06;2.80;;;1.52;;
49310;SDS011;35177;45.900;5.946;2022-08-21T07:05:32;3.20;;;1.60;;
49310;SDS011;35177;45.900;5.946;2022-08-21T07:07:58;2.13;;;1.88;;
49310;SDS011;35177;45.900;5.946;2022-08-21T07:10:24;4.15;;;2.20;;
49310;SDS011;35177;45.900;5.946;2022-08-21T07:12:51;4.13;;;2.92;;
49310;SDS011;35177;45.900;5.946;2022-08-21T07:15:19;4.30;;;2.30;;
49310;SDS011;35177;45.900;5.946;2022-08-21T07:17:44;7.57;;;2.72;;
49310;SDS011;35177;45.900;5.946;2022-08-21T07:20:10;4.50;;;2.45;;
49310;SDS011;35177;45.900;5.946;2022-08-21T07:22:36;5.35;;;2.10;;
49310;SDS011;35177;45.900;5.946;2022-08-21T07:25:04;3.85;;;2.20;;
49310;SDS011;35177;45.900;5.946;2022-08-21T07:27:30;5.10;;;2.00;;
49310;SDS011;35177;45.900;5.946;2022-08-21T07:29:56;3.42;;;2.33;;
49310;SDS011;35177;45.900;5.946;2022-08-21T07:32:22;4.75;;;2.30;;
49310;SDS011;35177;45.900;5.946;2022-08-21T07:34:48;5.72;;;2.33;;
49310;SDS011;35177;45.900;5.946;2022-08-21T07:37:13;4.15;;;2.28;;
49310;SDS011;35177;45.900;5.946;2022-08-21T07:39:39;2.38;;;2.00;;
49310;SDS011;35177;45.900;5.946;2022-08-21T07:42:04;4.30;;;2.75;;
49310;SDS011;35177;45.900;5.946;2022-08-21T07:44:30;6.30;;;2.25;;
49310;SDS011;35177;45.900;5.946;2022-08-21T07:46:56;3.78;;;2.70;;
49310;SDS011;35177;45.900;5.946;2022-08-21T07:49:21;6.07;;;2.10;;
49310;SDS011;35177;45.900;5.946;2022-08-21T07:51:47;2.28;;;2.05;;
49310;SDS011;35177;45.900;5.946;2022-08-21T07:54:12;2.70;;;1.90;;
49310;SDS011;35177;45.900;5.946;2022-08-21T07:56:38;6.03;;;1.90;;
49310;SDS011;35177;45.900;5.946;2022-08-21T07:59:03;2.00;;;1.90;;
49310;SDS011;35177;45.900;5.946;2022-08-21T08:01:29;4.40;;;1.90;;
49310;SDS011;35177;45.900;5.946;2022-08-21T08:03:55;3.92;;;2.08;;
49310;SDS011;35177;45.900;5.946;2022-08-21T08:06:21;4.18;;;1.88;;
49310;SDS011;35177;45.900;5.946;2022-08-21T08:08:48;1.80;;;1.70;;
49310;SDS011;35177;45.900;5.946;2022-08-21T08:11:13;2.22;;;1.77;;
49310;SDS011;35177;45.900;5.946;2022-08-21T08:13:47;4.40;;;1.63;;
49310;SDS011;35177;45.900;5.946;2022-08-21T08:18:40;1.88;;;1.75;;
49310;SDS011;35177;45.900;5.946;2022-08-21T08:21:07;3.13;;;1.50;;
49310;SDS011;35177;45.900;5.946;2022-08-21T08:23:33;1.70;;;1.60;;
49310;SDS011;35177;45.900;5.946;2022-08-21T08:25:59;3.80;;;1.70;;
49310;SDS011;35177;45.900;5.946;2022-08-21T08:28:27;3.75;;;1.60;;
49310;SDS011;35177;45.900;5.946;2022-08-21T08:30:53;2.95;;;1.33;;
49310;SDS011;35177;45.900;5.946;2022-08-21T08:33:20;2.75;;;1.63;;
49310;SDS011;35177;45.900;5.946;2022-08-21T08:35:46;2.67;;;1.85;;
49310;SDS011;35177;45.900;5.946;2022-08-21T08:38:14;3.03;;;1.65;;
49310;SDS011;35177;45.900;5.946;2022-08-21T08:40:51;4.43;;;1.70;;
49310;SDS011;35177;45.900;5.946;2022-08-21T08:43:38;2.63;;;1.40;;
49310;SDS011;35177;45.900;5.946;2022-08-21T08:46:13;1.60;;;1.50;;
49310;SDS011;35177;45.900;5.946;2022-08-21T08:51:19;2.78;;;1.75;;
49310;SDS011;35177;45.900;5.946;2022-08-21T08:53:54;6.18;;;2.25;;
49310;SDS011;35177;45.900;5.946;2022-08-21T08:56:28;4.72;;;1.58;;
49310;SDS011;35177;45.900;5.946;2022-08-21T08:58:58;11.45;;;1.70;;
49310;SDS011;35177;45.900;5.946;2022-08-21T09:01:28;3.72;;;1.65;;
49310;SDS011;35177;45.900;5.946;2022-08-21T09:03:53;1.77;;;1.58;;
49310;SDS011;35177;45.900;5.946;2022-08-21T09:06:33;4.63;;;1.30;;
49310;SDS011;35177;45.900;5.946;2022-08-21T09:09:29;3.85;;;1.30;;
49310;SDS011;35177;45.900;5.946;2022-08-21T09:12:08;1.33;;;1.20;;
49310;SDS011;35177;45.900;5.946;2022-08-21T09:14:45;2.22;;;1.20;;
49310;SDS011;35177;45.900;5.946;2022-08-21T09:20:11;1.75;;;1.40;;
49310;SDS011;35177;45.900;5.946;2022-08-21T09:25:43;5.35;;;1.20;;
49310;SDS011;35177;45.900;5.946;2022-08-21T09:28:18;2.15;;;1.10;;
49310;SDS011;35177;45.900;5.946;2022-08-21T09:30:43;13.15;;;2.22;;
49310;SDS011;35177;45.900;5.946;2022-08-21T09:33:10;3.20;;;1.00;;
49310;SDS011;35177;45.900;5.946;2022-08-21T09:35:47;1.60;;;0.93;;
49310;SDS011;35177;45.900;5.946;2022-08-21T09:38:24;1.42;;;1.00;;
49310;SDS011;35177;45.900;5.946;2022-08-21T09:40:59;1.77;;;0.90;;
49310;SDS011;35177;45.900;5.946;2022-08-21T09:43:33;2.70;;;1.10;;
49310;SDS011;35177;45.900;5.946;2022-08-21T09:46:05;2.55;;;0.88;;
49310;SDS011;35177;45.900;5.946;2022-08-21T09:48:45;0.70;;;0.70;;
49310;SDS011;35177;45.900;5.946;2022-08-21T09:51:18;2.00;;;0.85;;
49310;SDS011;35177;45.900;5.946;2022-08-21T09:56:33;2.22;;;0.90;;
49310;SDS011;35177;45.900;5.946;2022-08-21T09:59:29;3.30;;;0.90;;
49310;SDS011;35177;45.900;5.946;2022-08-21T10:01:58;0.57;;;0.57;;
49310;SDS011;35177;45.900;5.946;2022-08-21T10:04:31;1.85;;;1.02;;
49310;SDS011;35177;45.900;5.946;2022-08-21T10:09:34;1.58;;;1.13;;
49310;SDS011;35177;45.900;5.946;2022-08-21T10:14:48;1.10;;;0.90;;
49310;SDS011;35177;45.900;5.946;2022-08-21T10:20:25;0.82;;;0.70;;
49310;SDS011;35177;45.900;5.946;2022-08-21T10:23:15;1.77;;;1.02;;
49310;SDS011;35177;45.900;5.946;2022-08-21T10:29:01;2.65;;;1.10;;
49310;SDS011;35177;45.900;5.946;2022-08-21T10:31:40;2.25;;;0.85;;
49310;SDS011;35177;45.900;5.946;2022-08-21T10:34:28;3.05;;;0.90;;
49310;SDS011;35177;45.900;5.946;2022-08-21T10:39:56;0.70;;;0.70;;
49310;SDS011;35177;45.900;5.946;2022-08-21T10:48:34;3.67;;;3.25;;
49310;SDS011;35177;45.900;5.946;2022-08-21T10:51:10;2.38;;;0.70;;
49310;SDS011;35177;45.900;5.946;2022-08-21T10:57:31;0.70;;;0.70;;
49310;SDS011;35177;45.900;5.946;2022-08-21T11:00:23;1.70;;;0.60;;
49310;SDS011;35177;45.900;5.946;2022-08-21T11:03:02;1.70;;;0.70;;
49310;SDS011;35177;45.900;5.946;2022-08-21T11:08:06;0.80;;;0.80;;
49310;SDS011;35177;45.900;5.946;2022-08-21T11:24:15;0.98;;;0.70;;
49310;SDS011;35177;45.900;5.946;2022-08-21T11:26:47;1.17;;;0.70;;
49310;SDS011;35177;45.900;5.946;2022-08-21T11:29:21;1.50;;;0.68;;
49310;SDS011;35177;45.900;5.946;2022-08-21T11:43:05;0.70;;;0.70;;
49310;SDS011;35177;45.900;5.946;2022-08-21T11:50:48;2.35;;;0.65;;
49310;SDS011;35177;45.900;5.946;2022-08-21T11:53:17;0.60;;;0.60;;
49310;SDS011;35177;45.900;5.946;2022-08-21T11:56:01;0.50;;;0.50;;
49310;SDS011;35177;45.900;5.946;2022-08-21T11:58:38;0.73;;;0.43;;
49310;SDS011;35177;45.900;5.946;2022-08-21T12:01:09;2.05;;;0.70;;
49310;SDS011;35177;45.900;5.946;2022-08-21T12:03:42;0.50;;;0.50;;
49310;SDS011;35177;45.900;5.946;2022-08-21T12:06:26;2.13;;;0.52;;
49310;SDS011;35177;45.900;5.946;2022-08-21T12:11:59;0.73;;;0.70;;
49310;SDS011;35177;45.900;5.946;2022-08-21T12:14:35;0.80;;;0.70;;
49310;SDS011;35177;45.900;5.946;2022-08-21T12:17:07;0.65;;;0.65;;
49310;SDS011;35177;45.900;5.946;2022-08-21T12:19:34;1.48;;;0.40;;
49310;SDS011;35177;45.900;5.946;2022-08-21T12:24:33;1.25;;;0.50;;
49310;SDS011;35177;45.900;5.946;2022-08-21T12:30:18;0.60;;;0.60;;
49310;SDS011;35177;45.900;5.946;2022-08-21T12:32:59;1.20;;;0.68;;
49310;SDS011;35177;45.900;5.946;2022-08-21T12:35:46;0.50;;;0.50;;
49310;SDS011;35177;45.900;5.946;2022-08-21T12:38:15;0.50;;;0.50;;
49310;SDS011;35177;45.900;5.946;2022-08-21T12:40:45;0.65;;;0.50;;
49310;SDS011;35177;45.900;5.946;2022-08-21T12:43:18;2.38;;;0.70;;
49310;SDS011;35177;45.900;5.946;2022-08-21T12:45:53;0.88;;;0.70;;
49310;SDS011;35177;45.900;5.946;2022-08-21T12:48:26;1.63;;;0.70;;
49310;SDS011;35177;45.900;5.946;2022-08-21T12:51:04;3.75;;;0.80;;
49310;SDS011;35177;45.900;5.946;2022-08-21T12:56:16;1.55;;;0.70;;
49310;SDS011;35177;45.900;5.946;2022-08-21T12:58:48;0.65;;;0.60;;
49310;SDS011;35177;45.900;5.946;2022-08-21T13:01:33;0.98;;;0.80;;
49310;SDS011;35177;45.900;5.946;2022-08-21T13:04:05;2.47;;;0.80;;
49310;SDS011;35177;45.900;5.946;2022-08-21T13:06:39;2.20;;;0.80;;
49310;SDS011;35177;45.900;5.946;2022-08-21T13:09:08;0.87;;;0.70;;
49310;SDS011;35177;45.900;5.946;2022-08-21T13:11:42;0.77;;;0.77;;
49310;SDS011;35177;45.900;5.946;2022-08-21T13:14:13;0.80;;;0.80;;
49310;SDS011;35177;45.900;5.946;2022-08-21T13:17:04;4.47;;;1.08;;
49310;SDS011;35177;45.900;5.946;2022-08-21T13:19:32;3.42;;;0.80;;
49310;SDS011;35177;45.900;5.946;2022-08-21T13:21:59;0.80;;;0.80;;
49310;SDS011;35177;45.900;5.946;2022-08-21T13:24:27;2.15;;;0.77;;
49310;SDS011;35177;45.900;5.946;2022-08-21T13:26:55;2.70;;;0.75;;
49310;SDS011;35177;45.900;5.946;2022-08-21T13:29:23;0.80;;;0.80;;
49310;SDS011;35177;45.900;5.946;2022-08-21T13:31:57;1.02;;;0.90;;
49310;SDS011;35177;45.900;5.946;2022-08-21T13:34:26;1.25;;;1.00;;
49310;SDS011;35177;45.900;5.946;2022-08-21T13:36:57;0.82;;;0.82;;
49310;SDS011;35177;45.900;5.946;2022-08-21T13:39:26;1.95;;;0.77;;
49310;SDS011;35177;45.900;5.946;2022-08-21T13:41:54;3.05;;;0.90;;
49310;SDS011;35177;45.900;5.946;2022-08-21T13:44:23;1.02;;;0.85;;
49310;SDS011;35177;45.900;5.946;2022-08-21T13:46:57;2.15;;;0.80;;
49310;SDS011;35177;45.900;5.946;2022-08-21T13:49:27;1.02;;;0.90;;
49310;SDS011;35177;45.900;5.946;2022-08-21T13:51:56;0.80;;;0.80;;
49310;SDS011;35177;45.900;5.946;2022-08-21T13:54:41;1.77;;;0.60;;
49310;SDS011;35177;45.900;5.946;2022-08-21T13:57:42;1.60;;;0.80;;
49310;SDS011;35177;45.900;5.946;2022-08-21T14:02:38;0.85;;;0.85;;
49310;SDS011;35177;45.900;5.946;2022-08-21T14:05:06;0.88;;;0.88;;
49310;SDS011;35177;45.900;5.946;2022-08-21T14:07:39;0.82;;;0.82;;
49310;SDS011;35177;45.900;5.946;2022-08-21T14:10:07;1.05;;;0.80;;
49310;SDS011;35177;45.900;5.946;2022-08-21T14:15:13;2.58;;;0.90;;
49310;SDS011;35177;45.900;5.946;2022-08-21T14:17:40;1.15;;;0.80;;
49310;SDS011;35177;45.900;5.946;2022-08-21T14:20:08;2.00;;;0.85;;
49310;SDS011;35177;45.900;5.946;2022-08-21T14:22:40;1.20;;;0.75;;
49310;SDS011;35177;45.900;5.946;2022-08-21T14:30:54;1.98;;;0.73;;
49310;SDS011;35177;45.900;5.946;2022-08-21T14:33:28;1.48;;;0.70;;
49310;SDS011;35177;45.900;5.946;2022-08-21T14:35:55;1.75;;;0.73;;
49310;SDS011;35177;45.900;5.946;2022-08-21T14:38:22;1.63;;;0.80;;
49310;SDS011;35177;45.900;5.946;2022-08-21T14:40:50;1.17;;;0.77;;
49310;SDS011;35177;45.900;5.946;2022-08-21T14:43:18;1.00;;;0.70;;
49310;SDS011;35177;45.900;5.946;2022-08-21T14:45:45;0.75;;;0.73;;
49310;SDS011;35177;45.900;5.946;2022-08-21T14:48:11;0.52;;;0.52;;
49310;SDS011;35177;45.900;5.946;2022-08-21T14:50:37;1.48;;;0.70;;
49310;SDS011;35177;45.900;5.946;2022-08-21T14:53:03;1.73;;;0.75;;
49310;SDS011;35177;45.900;5.946;2022-08-21T14:55:29;1.02;;;0.80;;
49310;SDS011;35177;45.900;5.946;2022-08-21T14:58:16;0.88;;;0.85;;
49310;SDS011;35177;45.900;5.946;2022-08-21T15:00:41;1.38;;;0.80;;
49310;SDS011;35177;45.900;5.946;2022-08-21T15:03:07;1.25;;;0.70;;
49310;SDS011;35177;45.900;5.946;2022-08-21T15:05:32;1.25;;;0.77;;
49310;SDS011;35177;45.900;5.946;2022-08-21T15:07:58;3.03;;;0.95;;
49310;SDS011;35177;45.900;5.946;2022-08-21T15:10:23;0.80;;;0.80;;
49310;SDS011;35177;45.900;5.946;2022-08-21T15:12:49;0.77;;;0.75;;
49310;SDS011;35177;45.900;5.946;2022-08-21T15:15:14;1.77;;;1.00;;
49310;SDS011;35177;45.900;5.946;2022-08-21T15:17:40;1.33;;;1.00;;
49310;SDS011;35177;45.900;5.946;2022-08-21T15:20:06;1.38;;;0.93;;
49310;SDS011;35177;45.900;5.946;2022-08-21T15:22:34;2.53;;;1.10;;
49310;SDS011;35177;45.900;5.946;2022-08-21T15:25:00;1.30;;;1.05;;
49310;SDS011;35177;45.900;5.946;2022-08-21T15:27:26;3.05;;;1.30;;
49310;SDS011;35177;45.900;5.946;2022-08-21T15:29:53;5.00;;;1.20;;
49310;SDS011;35177;45.900;5.946;2022-08-21T15:32:25;2.50;;;1.08;;
49310;SDS011;35177;45.900;5.946;2022-08-21T15:34:53;2.88;;;1.25;;
49310;SDS011;35177;45.900;5.946;2022-08-21T15:37:20;2.85;;;0.93;;
49310;SDS011;35177;45.900;5.946;2022-08-21T15:39:46;1.95;;;1.00;;
49310;SDS011;35177;45.900;5.946;2022-08-21T15:42:12;12.02;;;1.00;;
49310;SDS011;35177;45.900;5.946;2022-08-21T15:44:41;4.90;;;1.05;;
49310;SDS011;35177;45.900;5.946;2022-08-21T15:47:42;4.15;;;1.33;;
49310;SDS011;35177;45.900;5.946;2022-08-21T15:50:00;3.70;;;1.00;;
49310;SDS011;35177;45.900;5.946;2022-08-21T15:52:28;2.17;;;1.10;;
49310;SDS011;35177;45.900;5.946;2022-08-21T15:54:53;1.40;;;0.90;;
49310;SDS011;35177;45.900;5.946;2022-08-21T15:57:20;4.28;;;1.40;;
49310;SDS011;35177;45.900;5.946;2022-08-21T15:59:50;1.70;;;0.95;;
49310;SDS011;35177;45.900;5.946;2022-08-21T16:02:27;2.45;;;0.80;;
49310;SDS011;35177;45.900;5.946;2022-08-21T16:04:55;1.33;;;0.90;;
49310;SDS011;35177;45.900;5.946;2022-08-21T16:07:21;3.03;;;1.10;;
49310;SDS011;35177;45.900;5.946;2022-08-21T16:09:47;4.97;;;1.23;;
49310;SDS011;35177;45.900;5.946;2022-08-21T16:12:16;3.47;;;1.00;;
49310;SDS011;35177;45.900;5.946;2022-08-21T16:14:47;1.73;;;1.10;;
49310;SDS011;35177;45.900;5.946;2022-08-21T16:17:14;2.67;;;1.00;;
49310;SDS011;35177;45.900;5.946;2022-08-21T16:19:40;4.30;;;1.17;;
49310;SDS011;35177;45.900;5.946;2022-08-21T16:22:06;5.00;;;1.38;;
49310;SDS011;35177;45.900;5.946;2022-08-21T16:24:31;2.97;;;0.82;;
49310;SDS011;35177;45.900;5.946;2022-08-21T16:26:57;3.67;;;1.02;;
49310;SDS011;35177;45.900;5.946;2022-08-21T16:29:22;4.65;;;1.33;;
49310;SDS011;35177;45.900;5.946;2022-08-21T16:31:49;2.35;;;1.10;;